sensor_id;sensor_type;location;lat;lon;timestamp;temperature;humidity
11824;DHT22;5969;50.780;7.726;2022-10-16T00:00:39;13.80;99.90
11824;DHT22;5969;50.780;7.726;2022-10-16T00:03:07;13.70;99.90
11824;DHT22;5969;50.780;7.726;2022-10-16T00:05:38;13.60;99.90
11824;DHT22;5969;50.780;7.726;2022-10-16T00:08:07;13.60;99.90
11824;DHT22;5969;50.780;7.726;2022-10-16T00:10:35;13.60;99.90
11824;DHT22;5969;50.780;7.726;2022-10-16T00:13:02;13.60;99.90
11824;DHT22;5969;50.780;7.726;2022-10-16T00:15:29;13.70;99.90
11824;DHT22;5969;50.780;7.726;2022-10-16T00:17:56;13.70;99.90
11824;DHT22;5969;50.780;7.726;2022-10-16T00:20:23;13.70;99.90
11824;DHT22;5969;50.780;7.726;2022-10-16T00:22:50;13.70;99.90
11824;DHT22;5969;50.780;7.726;2022-10-16T00:25:18;13.70;99.90
11824;DHT22;5969;50.780;7.726;2022-10-16T00:27:45;13.80;99.90
11824;DHT22;5969;50.780;7.726;2022-10-16T00:30:12;13.80;99.90
11824;DHT22;5969;50.780;7.726;2022-10-16T00:32:39;13.70;99.90
11824;DHT22;5969;50.780;7.726;2022-10-16T00:35:06;13.80;99.90
11824;DHT22;5969;50.780;7.726;2022-10-16T00:37:33;13.70;99.90
11824;DHT22;5969;50.780;7.726;2022-10-16T00:40:00;13.60;99.90
11824;DHT22;5969;50.780;7.726;2022-10-16T00:42:28;13.80;99.90
11824;DHT22;5969;50.780;7.726;2022-10-16T00:44:56;13.80;99.90
11824;DHT22;5969;50.780;7.726;2022-10-16T00:47:27;13.80;99.90
11824;DHT22;5969;50.780;7.726;2022-10-16T00:49:59;13.70;99.90
11824;DHT22;5969;50.780;7.726;2022-10-16T00:52:27;13.70;99.90
11824;DHT22;5969;50.780;7.726;2022-10-16T00:54:54;13.70;99.90
11824;DHT22;5969;50.780;7.726;2022-10-16T00:57:22;13.80;99.90
11824;DHT22;5969;50.780;7.726;2022-10-16T00:59:51;13.70;99.90
11824;DHT22;5969;50.780;7.726;2022-10-16T01:02:18;13.60;99.90
11824;DHT22;5969;50.780;7.726;2022-10-16T01:04:47;13.60;99.90
11824;DHT22;5969;50.780;7.726;2022-10-16T01:07:21;13.70;99.90
11824;DHT22;5969;50.780;7.726;2022-10-16T01:09:58;13.80;99.90
11824;DHT22;5969;50.780;7.726;2022-10-16T01:12:32;13.80;99.90
11824;DHT22;5969;50.780;7.726;2022-10-16T01:15:08;13.80;99.90
11824;DHT22;5969;50.780;7.726;2022-10-16T01:17:41;13.80;99.90
11824;DHT22;5969;50.780;7.726;2022-10-16T01:20:14;13.80;99.90
11824;DHT22;5969;50.780;7.726;2022-10-16T01:22:54;13.90;99.90
11824;DHT22;5969;50.780;7.726;2022-10-16T01:25:29;13.90;99.90
11824;DHT22;5969;50.780;7.726;2022-10-16T01:28:00;13.80;99.90
11824;DHT22;5969;50.780;7.726;2022-10-16T01:30:31;13.80;99.90
11824;DHT22;5969;50.780;7.726;2022-10-16T01:33:02;13.80;99.90
11824;DHT22;5969;50.780;7.726;2022-10-16T01:35:35;13.80;99.90
11824;DHT22;5969;50.780;7.726;2022-10-16T01:38:06;13.80;99.90
11824;DHT22;5969;50.780;7.726;2022-10-16T01:40:36;13.80;99.90
11824;DHT22;5969;50.780;7.726;2022-10-16T01:43:08;13.80;99.90
11824;DHT22;5969;50.780;7.726;2022-10-16T01:45:37;13.90;99.90
11824;DHT22;5969;50.780;7.726;2022-10-16T01:48:05;13.90;99.90
11824;DHT22;5969;50.780;7.726;2022-10-16T01:50:38;13.90;99.90
11824;DHT22;5969;50.780;7.726;2022-10-16T01:53:08;13.90;99.90
11824;DHT22;5969;50.780;7.726;2022-10-16T01:55:38;13.80;99.90
11824;DHT22;5969;50.780;7.726;2022-10-16T01:58:09;13.80;99.90
11824;DHT22;5969;50.780;7.726;2022-10-16T02:00:37;13.70;99.90
11824;DHT22;5969;50.780;7.726;2022-10-16T02:03:06;13.70;99.90
11824;DHT22;5969;50.780;7.726;2022-10-16T02:05:38;13.60;99.90
11824;DHT22;5969;50.780;7.726;2022-10-16T02:08:07;13.50;99.90
11824;DHT22;5969;50.780;7.726;2022-10-16T02:10:35;13.40;99.90
11824;DHT22;5969;50.780;7.726;2022-10-16T02:13:06;13.30;99.90
11824;DHT22;5969;50.780;7.726;2022-10-16T02:15:34;13.30;99.90
11824;DHT22;5969;50.780;7.726;2022-10-16T02:18:02;13.30;99.90
11824;DHT22;5969;50.780;7.726;2022-10-16T02:20:32;13.30;99.90
11824;DHT22;5969;50.780;7.726;2022-10-16T02:23:01;13.30;99.90
11824;DHT22;5969;50.780;7.726;2022-10-16T02:25:31;13.30;99.90
11824;DHT22;5969;50.780;7.726;2022-10-16T02:28:02;13.30;99.90
11824;DHT22;5969;50.780;7.726;2022-10-16T02:30:36;13.20;99.90
11824;DHT22;5969;50.780;7.726;2022-10-16T02:33:06;13.30;99.90
11824;DHT22;5969;50.780;7.726;2022-10-16T02:35:34;13.20;99.90
11824;DHT22;5969;50.780;7.726;2022-10-16T02:38:01;13.30;99.90
11824;DHT22;5969;50.780;7.726;2022-10-16T02:40:29;13.30;99.90
11824;DHT22;5969;50.780;7.726;2022-10-16T02:42:56;13.20;99.90
11824;DHT22;5969;50.780;7.726;2022-10-16T02:45:23;13.20;99.90
11824;DHT22;5969;50.780;7.726;2022-10-16T02:47:52;13.20;99.90
11824;DHT22;5969;50.780;7.726;2022-10-16T02:50:19;13.40;99.90
11824;DHT22;5969;50.780;7.726;2022-10-16T02:52:45;13.30;99.90
11824;DHT22;5969;50.780;7.726;2022-10-16T02:55:12;13.30;99.90
11824;DHT22;5969;50.780;7.726;2022-10-16T02:57:39;13.20;99.90
11824;DHT22;5969;50.780;7.726;2022-10-16T03:00:12;13.20;99.90
11824;DHT22;5969;50.780;7.726;2022-10-16T03:02:39;13.10;99.90
11824;DHT22;5969;50.780;7.726;2022-10-16T03:05:09;13.20;99.90
11824;DHT22;5969;50.780;7.726;2022-10-16T03:07:35;13.20;99.90
11824;DHT22;5969;50.780;7.726;2022-10-16T03:10:03;13.30;99.90
11824;DHT22;5969;50.780;7.726;2022-10-16T03:12:30;13.30;99.90
11824;DHT22;5969;50.780;7.726;2022-10-16T03:14:57;13.30;99.90
11824;DHT22;5969;50.780;7.726;2022-10-16T03:17:24;13.30;99.90
11824;DHT22;5969;50.780;7.726;2022-10-16T03:19:51;13.30;99.90
11824;DHT22;5969;50.780;7.726;2022-10-16T03:22:20;13.30;99.90
11824;DHT22;5969;50.780;7.726;2022-10-16T03:24:46;13.40;99.90
11824;DHT22;5969;50.780;7.726;2022-10-16T03:27:13;13.30;99.90
11824;DHT22;5969;50.780;7.726;2022-10-16T03:29:40;13.40;99.90
11824;DHT22;5969;50.780;7.726;2022-10-16T03:32:07;13.40;99.90
11824;DHT22;5969;50.780;7.726;2022-10-16T03:34:34;13.40;99.90
11824;DHT22;5969;50.780;7.726;2022-10-16T03:37:00;13.40;99.90
11824;DHT22;5969;50.780;7.726;2022-10-16T03:39:28;13.40;99.90
11824;DHT22;5969;50.780;7.726;2022-10-16T03:41:55;13.50;99.90
11824;DHT22;5969;50.780;7.726;2022-10-16T03:44:22;13.50;99.90
11824;DHT22;5969;50.780;7.726;2022-10-16T03:46:49;13.50;99.90
11824;DHT22;5969;50.780;7.726;2022-10-16T03:49:16;13.50;99.90
11824;DHT22;5969;50.780;7.726;2022-10-16T03:51:42;13.50;99.90
11824;DHT22;5969;50.780;7.726;2022-10-16T03:54:10;13.50;99.90
11824;DHT22;5969;50.780;7.726;2022-10-16T03:56:38;13.40;99.90
11824;DHT22;5969;50.780;7.726;2022-10-16T03:59:05;13.30;99.90
11824;DHT22;5969;50.780;7.726;2022-10-16T04:01:31;13.30;99.90
11824;DHT22;5969;50.780;7.726;2022-10-16T04:03:58;13.30;99.90
11824;DHT22;5969;50.780;7.726;2022-10-16T04:06:25;13.40;99.90
11824;DHT22;5969;50.780;7.726;2022-10-16T04:08:52;13.50;99.90
11824;DHT22;5969;50.780;7.726;2022-10-16T04:11:19;13.50;99.90
11824;DHT22;5969;50.780;7.726;2022-10-16T04:13:47;13.60;99.90
11824;DHT22;5969;50.780;7.726;2022-10-16T04:16:14;13.60;99.90
11824;DHT22;5969;50.780;7.726;2022-10-16T04:18:40;13.50;99.90
11824;DHT22;5969;50.780;7.726;2022-10-16T04:21:08;13.50;99.90
11824;DHT22;5969;50.780;7.726;2022-10-16T04:23:35;13.50;99.90
11824;DHT22;5969;50.780;7.726;2022-10-16T04:26:02;13.50;99.90
11824;DHT22;5969;50.780;7.726;2022-10-16T04:28:29;13.50;99.90
11824;DHT22;5969;50.780;7.726;2022-10-16T04:30:57;13.60;99.90
11824;DHT22;5969;50.780;7.726;2022-10-16T04:33:24;13.50;99.90
11824;DHT22;5969;50.780;7.726;2022-10-16T04:35:56;13.50;99.90
11824;DHT22;5969;50.780;7.726;2022-10-16T04:38:23;13.50;99.90
11824;DHT22;5969;50.780;7.726;2022-10-16T04:40:50;13.50;99.90
11824;DHT22;5969;50.780;7.726;2022-10-16T04:43:16;13.50;99.90
11824;DHT22;5969;50.780;7.726;2022-10-16T04:45:44;13.50;99.90
11824;DHT22;5969;50.780;7.726;2022-10-16T04:48:12;13.60;99.90
11824;DHT22;5969;50.780;7.726;2022-10-16T04:50:39;13.60;99.90
11824;DHT22;5969;50.780;7.726;2022-10-16T04:53:05;13.60;99.90
11824;DHT22;5969;50.780;7.726;2022-10-16T04:55:32;13.60;99.90
11824;DHT22;5969;50.780;7.726;2022-10-16T04:57:59;13.70;99.90
11824;DHT22;5969;50.780;7.726;2022-10-16T05:00:26;13.70;99.90
11824;DHT22;5969;50.780;7.726;2022-10-16T05:02:53;13.70;99.90
11824;DHT22;5969;50.780;7.726;2022-10-16T05:05:21;13.70;99.90
11824;DHT22;5969;50.780;7.726;2022-10-16T05:07:48;13.60;99.90
11824;DHT22;5969;50.780;7.726;2022-10-16T05:10:16;13.60;99.90
11824;DHT22;5969;50.780;7.726;2022-10-16T05:12:43;13.60;99.90
11824;DHT22;5969;50.780;7.726;2022-10-16T05:15:10;13.60;99.90
11824;DHT22;5969;50.780;7.726;2022-10-16T05:17:37;13.50;99.90
11824;DHT22;5969;50.780;7.726;2022-10-16T05:20:04;13.50;99.90
11824;DHT22;5969;50.780;7.726;2022-10-16T05:22:33;13.50;99.90
11824;DHT22;5969;50.780;7.726;2022-10-16T05:25:00;13.60;99.90
11824;DHT22;5969;50.780;7.726;2022-10-16T05:27:26;13.60;99.90
11824;DHT22;5969;50.780;7.726;2022-10-16T05:29:53;13.50;99.90
11824;DHT22;5969;50.780;7.726;2022-10-16T05:32:20;13.50;99.90
11824;DHT22;5969;50.780;7.726;2022-10-16T05:34:47;13.50;99.90
11824;DHT22;5969;50.780;7.726;2022-10-16T05:37:14;13.40;99.90
11824;DHT22;5969;50.780;7.726;2022-10-16T05:39:42;13.50;99.90
11824;DHT22;5969;50.780;7.726;2022-10-16T05:42:09;13.50;99.90
11824;DHT22;5969;50.780;7.726;2022-10-16T05:44:36;13.50;99.90
11824;DHT22;5969;50.780;7.726;2022-10-16T05:47:03;13.50;99.90
11824;DHT22;5969;50.780;7.726;2022-10-16T05:49:30;13.50;99.90
11824;DHT22;5969;50.780;7.726;2022-10-16T05:51:57;13.60;99.90
11824;DHT22;5969;50.780;7.726;2022-10-16T05:54:24;13.50;99.90
11824;DHT22;5969;50.780;7.726;2022-10-16T05:56:52;13.50;99.90
11824;DHT22;5969;50.780;7.726;2022-10-16T05:59:19;13.50;99.90
11824;DHT22;5969;50.780;7.726;2022-10-16T06:01:46;13.60;99.90
11824;DHT22;5969;50.780;7.726;2022-10-16T06:04:13;13.50;99.90
11824;DHT22;5969;50.780;7.726;2022-10-16T06:06:40;13.60;99.90
11824;DHT22;5969;50.780;7.726;2022-10-16T06:09:07;13.60;99.90
11824;DHT22;5969;50.780;7.726;2022-10-16T06:11:34;13.60;99.90
11824;DHT22;5969;50.780;7.726;2022-10-16T06:14:02;13.60;99.90
11824;DHT22;5969;50.780;7.726;2022-10-16T06:16:32;13.60;99.90
11824;DHT22;5969;50.780;7.726;2022-10-16T06:18:59;13.50;99.90
11824;DHT22;5969;50.780;7.726;2022-10-16T06:21:27;13.50;99.90
11824;DHT22;5969;50.780;7.726;2022-10-16T06:23:55;13.60;99.90
11824;DHT22;5969;50.780;7.726;2022-10-16T06:26:24;13.60;99.90
11824;DHT22;5969;50.780;7.726;2022-10-16T06:28:53;13.60;99.90
11824;DHT22;5969;50.780;7.726;2022-10-16T06:31:22;13.70;99.90
11824;DHT22;5969;50.780;7.726;2022-10-16T06:33:52;13.80;99.90
11824;DHT22;5969;50.780;7.726;2022-10-16T06:36:20;13.80;99.90
11824;DHT22;5969;50.780;7.726;2022-10-16T06:38:47;13.80;99.90
11824;DHT22;5969;50.780;7.726;2022-10-16T06:41:16;13.80;99.90
11824;DHT22;5969;50.780;7.726;2022-10-16T06:43:43;13.80;99.90
11824;DHT22;5969;50.780;7.726;2022-10-16T06:46:12;13.80;99.90
11824;DHT22;5969;50.780;7.726;2022-10-16T06:48:41;13.80;99.90
11824;DHT22;5969;50.780;7.726;2022-10-16T06:51:10;13.80;99.90
11824;DHT22;5969;50.780;7.726;2022-10-16T06:53:39;13.80;99.90
11824;DHT22;5969;50.780;7.726;2022-10-16T06:56:10;13.80;99.90
11824;DHT22;5969;50.780;7.726;2022-10-16T06:58:38;13.80;99.90
11824;DHT22;5969;50.780;7.726;2022-10-16T07:01:05;13.70;99.90
11824;DHT22;5969;50.780;7.726;2022-10-16T07:03:33;13.80;99.90
11824;DHT22;5969;50.780;7.726;2022-10-16T07:06:03;13.80;99.90
11824;DHT22;5969;50.780;7.726;2022-10-16T07:08:31;13.80;99.90
11824;DHT22;5969;50.780;7.726;2022-10-16T07:11:00;13.90;99.90
11824;DHT22;5969;50.780;7.726;2022-10-16T07:13:27;13.80;99.90
11824;DHT22;5969;50.780;7.726;2022-10-16T07:15:54;13.90;99.90
11824;DHT22;5969;50.780;7.726;2022-10-16T07:18:21;14.00;99.90
11824;DHT22;5969;50.780;7.726;2022-10-16T07:20:51;14.00;99.90
11824;DHT22;5969;50.780;7.726;2022-10-16T07:23:20;14.10;99.90
11824;DHT22;5969;50.780;7.726;2022-10-16T07:25:53;14.20;99.90
11824;DHT22;5969;50.780;7.726;2022-10-16T07:28:21;14.20;99.90
11824;DHT22;5969;50.780;7.726;2022-10-16T07:30:48;14.30;99.90
11824;DHT22;5969;50.780;7.726;2022-10-16T07:33:15;14.30;99.90
11824;DHT22;5969;50.780;7.726;2022-10-16T07:35:48;14.30;99.90
11824;DHT22;5969;50.780;7.726;2022-10-16T07:38:15;14.30;99.90
11824;DHT22;5969;50.780;7.726;2022-10-16T07:40:44;14.40;99.90
11824;DHT22;5969;50.780;7.726;2022-10-16T07:43:11;14.40;99.90
11824;DHT22;5969;50.780;7.726;2022-10-16T07:45:46;14.40;99.90
11824;DHT22;5969;50.780;7.726;2022-10-16T07:48:13;14.50;99.90
11824;DHT22;5969;50.780;7.726;2022-10-16T07:50:39;14.50;99.90
11824;DHT22;5969;50.780;7.726;2022-10-16T07:53:06;14.80;99.90
11824;DHT22;5969;50.780;7.726;2022-10-16T07:55:34;14.80;99.90
11824;DHT22;5969;50.780;7.726;2022-10-16T07:58:02;14.70;99.90
11824;DHT22;5969;50.780;7.726;2022-10-16T08:00:29;14.70;99.90
11824;DHT22;5969;50.780;7.726;2022-10-16T08:02:56;14.60;99.90
11824;DHT22;5969;50.780;7.726;2022-10-16T08:05:25;14.60;99.90
11824;DHT22;5969;50.780;7.726;2022-10-16T08:07:52;14.60;99.90
11824;DHT22;5969;50.780;7.726;2022-10-16T08:10:21;14.80;99.90
11824;DHT22;5969;50.780;7.726;2022-10-16T08:12:48;14.80;99.90
11824;DHT22;5969;50.780;7.726;2022-10-16T08:15:16;14.90;99.90
11824;DHT22;5969;50.780;7.726;2022-10-16T08:17:43;15.00;99.90
11824;DHT22;5969;50.780;7.726;2022-10-16T08:20:11;15.20;99.90
11824;DHT22;5969;50.780;7.726;2022-10-16T08:22:37;15.20;99.90
11824;DHT22;5969;50.780;7.726;2022-10-16T08:25:05;15.30;99.90
11824;DHT22;5969;50.780;7.726;2022-10-16T08:27:32;15.30;99.90
11824;DHT22;5969;50.780;7.726;2022-10-16T08:29:59;15.30;99.90
11824;DHT22;5969;50.780;7.726;2022-10-16T08:32:27;15.40;99.90
11824;DHT22;5969;50.780;7.726;2022-10-16T08:34:54;15.40;99.90
11824;DHT22;5969;50.780;7.726;2022-10-16T08:37:21;15.50;99.90
11824;DHT22;5969;50.780;7.726;2022-10-16T08:39:47;15.60;99.90
11824;DHT22;5969;50.780;7.726;2022-10-16T08:42:33;15.60;99.90
11824;DHT22;5969;50.780;7.726;2022-10-16T08:45:24;15.70;99.90
11824;DHT22;5969;50.780;7.726;2022-10-16T08:48:08;16.00;99.90
11824;DHT22;5969;50.780;7.726;2022-10-16T08:50:40;16.00;99.90
11824;DHT22;5969;50.780;7.726;2022-10-16T08:53:10;15.90;99.90
11824;DHT22;5969;50.780;7.726;2022-10-16T08:55:42;15.80;99.90
11824;DHT22;5969;50.780;7.726;2022-10-16T08:58:13;15.60;99.90
11824;DHT22;5969;50.780;7.726;2022-10-16T09:00:43;15.80;99.90
11824;DHT22;5969;50.780;7.726;2022-10-16T09:03:23;15.70;99.90
11824;DHT22;5969;50.780;7.726;2022-10-16T09:08:56;15.90;99.90
11824;DHT22;5969;50.780;7.726;2022-10-16T09:11:34;16.30;99.90
11824;DHT22;5969;50.780;7.726;2022-10-16T09:14:10;16.50;99.90
11824;DHT22;5969;50.780;7.726;2022-10-16T09:16:46;16.40;99.90
11824;DHT22;5969;50.780;7.726;2022-10-16T09:19:23;16.30;99.90
11824;DHT22;5969;50.780;7.726;2022-10-16T09:21:51;16.40;99.90
11824;DHT22;5969;50.780;7.726;2022-10-16T09:24:19;16.60;99.90
11824;DHT22;5969;50.780;7.726;2022-10-16T09:26:47;16.90;99.90
11824;DHT22;5969;50.780;7.726;2022-10-16T09:29:15;17.00;99.90
11824;DHT22;5969;50.780;7.726;2022-10-16T09:31:43;16.90;99.90
11824;DHT22;5969;50.780;7.726;2022-10-16T09:34:20;16.70;99.90
11824;DHT22;5969;50.780;7.726;2022-10-16T09:36:50;16.90;99.90
11824;DHT22;5969;50.780;7.726;2022-10-16T09:39:18;16.80;99.90
11824;DHT22;5969;50.780;7.726;2022-10-16T09:41:45;16.70;99.90
11824;DHT22;5969;50.780;7.726;2022-10-16T09:44:19;16.80;99.90
11824;DHT22;5969;50.780;7.726;2022-10-16T09:46:48;17.00;99.90
11824;DHT22;5969;50.780;7.726;2022-10-16T09:49:21;17.20;99.90
11824;DHT22;5969;50.780;7.726;2022-10-16T09:51:49;17.30;99.90
11824;DHT22;5969;50.780;7.726;2022-10-16T09:54:21;17.40;99.90
11824;DHT22;5969;50.780;7.726;2022-10-16T09:56:48;17.10;99.90
11824;DHT22;5969;50.780;7.726;2022-10-16T09:59:18;17.70;99.90
11824;DHT22;5969;50.780;7.726;2022-10-16T10:01:47;17.60;99.90
11824;DHT22;5969;50.780;7.726;2022-10-16T10:04:14;17.70;99.90
11824;DHT22;5969;50.780;7.726;2022-10-16T10:06:45;17.50;99.90
11824;DHT22;5969;50.780;7.726;2022-10-16T10:09:20;17.50;99.90
11824;DHT22;5969;50.780;7.726;2022-10-16T10:11:50;17.50;99.90
11824;DHT22;5969;50.780;7.726;2022-10-16T10:14:30;17.60;99.90
11824;DHT22;5969;50.780;7.726;2022-10-16T10:17:17;17.70;99.90
11824;DHT22;5969;50.780;7.726;2022-10-16T10:19:50;17.60;99.90
11824;DHT22;5969;50.780;7.726;2022-10-16T10:22:26;17.30;99.90
11824;DHT22;5969;50.780;7.726;2022-10-16T10:28:03;17.70;99.90
11824;DHT22;5969;50.780;7.726;2022-10-16T10:30:38;18.20;99.90
11824;DHT22;5969;50.780;7.726;2022-10-16T10:33:20;18.40;99.90
11824;DHT22;5969;50.780;7.726;2022-10-16T10:35:54;18.20;99.90
11824;DHT22;5969;50.780;7.726;2022-10-16T10:38:32;18.10;99.90
11824;DHT22;5969;50.780;7.726;2022-10-16T10:41:13;18.20;99.90
11824;DHT22;5969;50.780;7.726;2022-10-16T10:43:54;18.40;99.90
11824;DHT22;5969;50.780;7.726;2022-10-16T10:46:32;18.60;99.90
11824;DHT22;5969;50.780;7.726;2022-10-16T10:49:12;18.80;99.90
11824;DHT22;5969;50.780;7.726;2022-10-16T10:51:51;19.30;99.90
11824;DHT22;5969;50.780;7.726;2022-10-16T10:54:26;18.70;99.90
11824;DHT22;5969;50.780;7.726;2022-10-16T10:56:58;18.50;99.90
11824;DHT22;5969;50.780;7.726;2022-10-16T10:59:37;18.70;99.90
11824;DHT22;5969;50.780;7.726;2022-10-16T11:02:13;19.20;99.90
11824;DHT22;5969;50.780;7.726;2022-10-16T11:05:10;18.90;99.90
11824;DHT22;5969;50.780;7.726;2022-10-16T11:07:42;19.30;99.90
11824;DHT22;5969;50.780;7.726;2022-10-16T11:10:16;20.90;99.90
11824;DHT22;5969;50.780;7.726;2022-10-16T11:12:45;25.60;99.90
11824;DHT22;5969;50.780;7.726;2022-10-16T11:15:16;29.80;99.90
11824;DHT22;5969;50.780;7.726;2022-10-16T11:17:48;31.20;99.90
11824;DHT22;5969;50.780;7.726;2022-10-16T11:20:20;27.80;99.90
11824;DHT22;5969;50.780;7.726;2022-10-16T11:22:51;28.50;99.90
11824;DHT22;5969;50.780;7.726;2022-10-16T11:25:23;27.90;99.90
11824;DHT22;5969;50.780;7.726;2022-10-16T11:27:55;25.50;99.90
11824;DHT22;5969;50.780;7.726;2022-10-16T11:30:25;25.00;99.90
11824;DHT22;5969;50.780;7.726;2022-10-16T11:33:02;28.60;99.90
11824;DHT22;5969;50.780;7.726;2022-10-16T11:35:39;28.60;99.90
11824;DHT22;5969;50.780;7.726;2022-10-16T11:38:10;27.20;99.90
11824;DHT22;5969;50.780;7.726;2022-10-16T11:40:43;26.40;99.90
11824;DHT22;5969;50.780;7.726;2022-10-16T11:43:17;24.40;99.90
11824;DHT22;5969;50.780;7.726;2022-10-16T11:45:50;28.30;99.90
11824;DHT22;5969;50.780;7.726;2022-10-16T11:48:24;32.80;99.90
11824;DHT22;5969;50.780;7.726;2022-10-16T11:50:54;34.00;95.90
11824;DHT22;5969;50.780;7.726;2022-10-16T11:53:31;31.90;97.10
11824;DHT22;5969;50.780;7.726;2022-10-16T11:56:03;29.20;98.90
11824;DHT22;5969;50.780;7.726;2022-10-16T11:58:33;26.20;99.90
11824;DHT22;5969;50.780;7.726;2022-10-16T12:01:15;25.60;99.90
11824;DHT22;5969;50.780;7.726;2022-10-16T12:03:51;26.00;99.90
11824;DHT22;5969;50.780;7.726;2022-10-16T12:06:30;26.30;99.90
11824;DHT22;5969;50.780;7.726;2022-10-16T12:08:59;26.40;99.90
11824;DHT22;5969;50.780;7.726;2022-10-16T12:11:38;24.90;99.90
11824;DHT22;5969;50.780;7.726;2022-10-16T12:14:18;24.80;99.90
11824;DHT22;5969;50.780;7.726;2022-10-16T12:16:54;24.40;99.90
11824;DHT22;5969;50.780;7.726;2022-10-16T12:19:23;27.80;99.90
11824;DHT22;5969;50.780;7.726;2022-10-16T12:21:51;30.40;99.90
11824;DHT22;5969;50.780;7.726;2022-10-16T12:24:35;32.00;96.40
11824;DHT22;5969;50.780;7.726;2022-10-16T12:27:06;30.60;98.80
11824;DHT22;5969;50.780;7.726;2022-10-16T12:29:45;28.80;99.30
11824;DHT22;5969;50.780;7.726;2022-10-16T12:32:27;29.10;99.90
11824;DHT22;5969;50.780;7.726;2022-10-16T12:34:54;32.60;98.50
11824;DHT22;5969;50.780;7.726;2022-10-16T12:37:23;34.00;95.60
11824;DHT22;5969;50.780;7.726;2022-10-16T12:39:52;33.70;95.00
11824;DHT22;5969;50.780;7.726;2022-10-16T12:42:23;31.50;95.20
11824;DHT22;5969;50.780;7.726;2022-10-16T12:44:57;29.10;98.00
11824;DHT22;5969;50.780;7.726;2022-10-16T12:47:36;26.30;99.90
11824;DHT22;5969;50.780;7.726;2022-10-16T12:50:21;23.90;99.90
11824;DHT22;5969;50.780;7.726;2022-10-16T12:52:49;23.00;99.90
11824;DHT22;5969;50.780;7.726;2022-10-16T12:55:17;21.90;99.90
11824;DHT22;5969;50.780;7.726;2022-10-16T12:58:00;21.40;99.90
11824;DHT22;5969;50.780;7.726;2022-10-16T13:00:38;21.60;99.90
11824;DHT22;5969;50.780;7.726;2022-10-16T13:03:31;21.80;99.90
11824;DHT22;5969;50.780;7.726;2022-10-16T13:09:14;21.80;99.90
11824;DHT22;5969;50.780;7.726;2022-10-16T13:11:56;21.70;99.90
11824;DHT22;5969;50.780;7.726;2022-10-16T13:14:44;22.40;99.90
11824;DHT22;5969;50.780;7.726;2022-10-16T13:17:20;23.30;99.90
11824;DHT22;5969;50.780;7.726;2022-10-16T13:19:55;23.60;99.90
11824;DHT22;5969;50.780;7.726;2022-10-16T13:22:29;24.40;99.90
11824;DHT22;5969;50.780;7.726;2022-10-16T13:25:10;24.60;99.90
11824;DHT22;5969;50.780;7.726;2022-10-16T13:30:16;23.10;99.90
11824;DHT22;5969;50.780;7.726;2022-10-16T13:32:45;22.90;99.90
11824;DHT22;5969;50.780;7.726;2022-10-16T13:37:49;22.40;99.90
11824;DHT22;5969;50.780;7.726;2022-10-16T13:40:23;21.60;99.90
11824;DHT22;5969;50.780;7.726;2022-10-16T13:45:22;22.40;99.90
11824;DHT22;5969;50.780;7.726;2022-10-16T13:47:49;23.00;99.90
11824;DHT22;5969;50.780;7.726;2022-10-16T13:50:18;25.50;99.90
11824;DHT22;5969;50.780;7.726;2022-10-16T13:52:45;27.50;99.90
11824;DHT22;5969;50.780;7.726;2022-10-16T13:55:13;26.10;99.90
11824;DHT22;5969;50.780;7.726;2022-10-16T13:57:40;25.50;99.90
11824;DHT22;5969;50.780;7.726;2022-10-16T14:00:20;25.10;99.90
11824;DHT22;5969;50.780;7.726;2022-10-16T14:02:57;25.40;99.90
11824;DHT22;5969;50.780;7.726;2022-10-16T14:05:26;25.30;99.90
11824;DHT22;5969;50.780;7.726;2022-10-16T14:07:54;24.70;99.90
11824;DHT22;5969;50.780;7.726;2022-10-16T14:10:23;23.50;99.90
11824;DHT22;5969;50.780;7.726;2022-10-16T14:12:59;22.80;99.90
11824;DHT22;5969;50.780;7.726;2022-10-16T14:15:27;22.10;99.90
11824;DHT22;5969;50.780;7.726;2022-10-16T14:17:55;21.80;99.90
11824;DHT22;5969;50.780;7.726;2022-10-16T14:20:26;21.40;99.90
11824;DHT22;5969;50.780;7.726;2022-10-16T14:23:00;21.00;99.90
11824;DHT22;5969;50.780;7.726;2022-10-16T14:25:29;20.70;99.90
11824;DHT22;5969;50.780;7.726;2022-10-16T14:27:59;20.80;99.90
11824;DHT22;5969;50.780;7.726;2022-10-16T14:30:28;20.50;99.90
11824;DHT22;5969;50.780;7.726;2022-10-16T14:32:57;20.10;99.90
11824;DHT22;5969;50.780;7.726;2022-10-16T14:35:27;20.20;99.90
11824;DHT22;5969;50.780;7.726;2022-10-16T14:37:56;20.00;99.90
11824;DHT22;5969;50.780;7.726;2022-10-16T14:40:25;20.00;99.90
11824;DHT22;5969;50.780;7.726;2022-10-16T14:42:53;19.90;99.90
11824;DHT22;5969;50.780;7.726;2022-10-16T14:45:21;19.70;99.90
11824;DHT22;5969;50.780;7.726;2022-10-16T14:47:53;19.50;99.90
11824;DHT22;5969;50.780;7.726;2022-10-16T14:50:20;19.10;99.90
11824;DHT22;5969;50.780;7.726;2022-10-16T14:52:47;19.10;99.90
11824;DHT22;5969;50.780;7.726;2022-10-16T14:55:15;18.80;99.90
11824;DHT22;5969;50.780;7.726;2022-10-16T14:57:43;18.70;99.90
11824;DHT22;5969;50.780;7.726;2022-10-16T15:00:16;18.70;99.90
11824;DHT22;5969;50.780;7.726;2022-10-16T15:02:44;18.90;99.90
11824;DHT22;5969;50.780;7.726;2022-10-16T15:05:16;18.80;99.90
11824;DHT22;5969;50.780;7.726;2022-10-16T15:07:44;18.80;99.90
11824;DHT22;5969;50.780;7.726;2022-10-16T15:10:11;18.80;99.90
11824;DHT22;5969;50.780;7.726;2022-10-16T15:12:38;18.90;99.90
11824;DHT22;5969;50.780;7.726;2022-10-16T15:15:29;18.90;99.90
11824;DHT22;5969;50.780;7.726;2022-10-16T15:17:57;18.90;99.90
11824;DHT22;5969;50.780;7.726;2022-10-16T15:20:28;19.00;99.90
11824;DHT22;5969;50.780;7.726;2022-10-16T15:22:56;19.10;99.90
11824;DHT22;5969;50.780;7.726;2022-10-16T15:25:33;19.00;99.90
11824;DHT22;5969;50.780;7.726;2022-10-16T15:28:02;18.90;99.90
11824;DHT22;5969;50.780;7.726;2022-10-16T15:30:29;18.90;99.90
11824;DHT22;5969;50.780;7.726;2022-10-16T15:32:56;19.00;99.90
11824;DHT22;5969;50.780;7.726;2022-10-16T15:35:23;19.00;99.90
11824;DHT22;5969;50.780;7.726;2022-10-16T15:37:52;19.00;99.90
11824;DHT22;5969;50.780;7.726;2022-10-16T15:40:19;18.90;99.90
11824;DHT22;5969;50.780;7.726;2022-10-16T15:42:46;18.80;99.90
11824;DHT22;5969;50.780;7.726;2022-10-16T15:45:13;18.60;99.90
11824;DHT22;5969;50.780;7.726;2022-10-16T15:47:41;18.70;99.90
11824;DHT22;5969;50.780;7.726;2022-10-16T15:50:10;18.70;99.90
11824;DHT22;5969;50.780;7.726;2022-10-16T15:52:38;18.60;99.90
11824;DHT22;5969;50.780;7.726;2022-10-16T15:55:09;18.60;99.90
11824;DHT22;5969;50.780;7.726;2022-10-16T15:57:37;18.50;99.90
11824;DHT22;5969;50.780;7.726;2022-10-16T16:00:07;18.40;99.90
11824;DHT22;5969;50.780;7.726;2022-10-16T16:02:35;18.40;99.90
11824;DHT22;5969;50.780;7.726;2022-10-16T16:05:02;18.30;99.90
11824;DHT22;5969;50.780;7.726;2022-10-16T16:07:32;18.30;99.90
11824;DHT22;5969;50.780;7.726;2022-10-16T16:09:59;18.20;99.90
11824;DHT22;5969;50.780;7.726;2022-10-16T16:12:27;18.20;99.90
11824;DHT22;5969;50.780;7.726;2022-10-16T16:14:54;18.20;99.90
11824;DHT22;5969;50.780;7.726;2022-10-16T16:17:21;18.20;99.90
11824;DHT22;5969;50.780;7.726;2022-10-16T16:19:49;18.10;99.90